createdAt,value
2019-05-12T15:06:29.673Z,100016.00
2019-05-12T15:09:11.473Z,100019.00
2019-05-12T15:11:52.009Z,100029.00
2019-05-12T15:14:38.184Z,100052.00
2019-05-12T15:17:22.524Z,100076.00
2019-05-12T15:20:00.251Z,100065.00
2019-05-12T15:22:42.943Z,100068.00
2019-05-12T15:25:18.140Z,100030.00
2019-05-12T15:27:55.267Z,100024.00
2019-05-12T15:30:33.779Z,100065.00
2019-05-12T15:33:14.127Z,100075.00
2019-05-12T15:35:55.879Z,100089.00
2019-05-12T15:38:43.693Z,100097.00
2019-05-12T15:41:28.039Z,100109.00
2019-05-12T15:44:09.222Z,100105.00
2019-05-12T15:49:54.638Z,100055.00
2019-05-12T15:52:38.322Z,100095.00
2019-05-12T15:55:13.665Z,100104.00
2019-05-12T15:57:53.736Z,100104.00
2019-05-12T16:00:34.407Z,100124.00
2019-05-12T16:03:12.148Z,100130.00
2019-05-12T16:06:01.274Z,100131.00
2019-05-12T16:08:34.748Z,100126.00
2019-05-12T16:11:07.808Z,100121.00
2019-05-12T16:13:54.792Z,100096.00
2019-05-12T16:16:36.394Z,100107.00
2019-05-12T16:19:15.795Z,100094.00
2019-05-12T16:21:59.194Z,100129.00
2019-05-12T16:24:34.196Z,100127.00
2019-05-12T16:27:33.147Z,100143.00
2019-05-12T16:30:13.923Z,100139.00
2019-05-12T16:32:54.841Z,100146.00
2019-05-12T16:35:47.823Z,100149.00
2019-05-12T16:38:35.589Z,100136.00
2019-05-12T16:41:19.985Z,100139.00
2019-05-12T16:44:07.573Z,100150.00
2019-05-12T16:46:44.555Z,100166.00
2019-05-12T16:49:33.146Z,100174.00
2019-05-12T16:52:06.136Z,100181.00
2019-05-12T16:54:39.924Z,100191.00
2019-05-12T16:57:19.603Z,100188.00
2019-05-12T17:00:03.567Z,100205.00
2019-05-12T17:02:41.934Z,100200.00
2019-05-12T17:05:24.612Z,100206.00
2019-05-12T17:08:04.212Z,100198.00
2019-05-12T17:10:56.769Z,100201.00
2019-05-12T17:13:36.886Z,100197.00
2019-05-12T17:16:15.796Z,100188.00
2019-05-12T17:19:00.081Z,100186.00
2019-05-12T17:21:37.021Z,100188.00
2019-05-12T17:24:14.438Z,100203.00
2019-05-12T17:26:58.900Z,100211.00
2019-05-12T17:29:37.258Z,100204.00
2019-05-12T17:32:18.306Z,100221.00
2019-05-12T17:34:55.178Z,100227.00
2019-05-12T17:37:41.289Z,100223.00
2019-05-12T17:40:24.281Z,100208.00
2019-05-12T17:43:11.632Z,100219.00
2019-05-12T17:45:50.509Z,100219.00
2019-05-12T17:48:26.433Z,100222.00
2019-05-12T17:51:08.923Z,100230.00
2019-05-12T17:58:04.456Z,100233.00
2019-05-12T18:00:47.575Z,100239.00
2019-05-12T18:03:25.769Z,100241.00
2019-05-12T18:06:35.242Z,100235.00
2019-05-12T18:09:20.156Z,100248.00
2019-05-12T18:12:04.239Z,100241.00
2019-05-12T18:14:50.325Z,100255.00
2019-05-12T18:17:24.065Z,100253.00
2019-05-12T18:20:04.149Z,100247.00
2019-05-12T18:22:45.085Z,100254.00
2019-05-12T18:28:21.630Z,100251.00
2019-05-12T18:31:04.305Z,100254.00
2019-05-12T18:33:57.010Z,100260.00
2019-05-12T18:36:43.306Z,100271.00
2019-05-12T18:39:24.127Z,100278.00
2019-05-12T18:42:00.721Z,100278.00
2019-05-12T18:44:35.770Z,100282.00
2019-05-12T18:47:23.412Z,100277.00
2019-05-12T18:50:00.694Z,100288.00
2019-05-12T18:52:46.174Z,100296.00
2019-05-12T18:55:29.348Z,100298.00
2019-05-12T18:58:21.873Z,100307.00
2019-05-12T19:01:07.613Z,100312.00
2019-05-12T19:03:54.604Z,100317.00
2019-05-12T19:06:34.706Z,100320.00
2019-05-12T19:09:16.145Z,100341.00
2019-05-12T19:11:56.809Z,100320.00
2019-05-12T19:14:36.873Z,100350.00
2019-05-12T19:17:15.234Z,100366.00
2019-05-12T19:20:00.084Z,100371.00
2019-05-12T19:22:39.509Z,100365.00
2019-05-12T19:25:20.281Z,100370.00
2019-05-12T19:28:06.985Z,100365.00
2019-05-12T19:30:46.586Z,100380.00
2019-05-12T19:33:52.994Z,100393.00
2019-05-12T19:36:24.027Z,100395.00
2019-05-12T19:39:03.510Z,100410.00
2019-05-12T19:41:48.977Z,100412.00
2019-05-12T19:44:31.079Z,100420.00
2019-05-12T19:47:09.159Z,100421.00
2019-05-12T19:49:50.727Z,100422.00
2019-05-12T19:55:27.719Z,100444.00
2019-05-12T19:58:13.528Z,100438.00
2019-05-12T20:00:56.782Z,100443.00
2019-05-12T20:03:33.518Z,100468.00
2019-05-12T20:06:28.235Z,100447.00
2019-05-12T20:09:11.029Z,100465.00
2019-05-12T20:11:48.934Z,100468.00
2019-05-12T20:14:34.450Z,100462.00
2019-05-12T20:17:27.297Z,100459.00
2019-05-12T20:20:07.937Z,100438.00
2019-05-12T20:32:34.738Z,100469.00
2019-05-12T20:35:17.741Z,100461.00
2019-05-12T20:38:07.014Z,100464.00
2019-05-12T20:40:48.806Z,100470.00
2019-05-12T20:43:32.165Z,100468.00
2019-05-12T20:46:15.471Z,100483.00
2019-05-12T20:49:01.064Z,100486.00
2019-05-12T20:51:39.045Z,100486.00
2019-05-12T20:54:25.416Z,100489.00
2019-05-12T20:57:07.977Z,100468.00
2019-05-12T20:59:46.465Z,100488.00
2019-05-12T21:02:25.696Z,100484.00
2019-05-12T21:05:16.619Z,100492.00
2019-05-12T21:07:55.914Z,100482.00
2019-05-12T21:10:34.279Z,100477.00
2019-05-12T21:13:20.383Z,100486.00
2019-05-12T21:25:23.334Z,100484.00
2019-05-12T21:28:02.512Z,100476.00
2019-05-12T21:30:55.869Z,100478.00
2019-05-12T21:33:41.619Z,100475.00
2019-05-12T21:36:24.734Z,100481.00
2019-05-12T21:39:08.432Z,100477.00
2019-05-12T21:41:50.410Z,100479.00
2019-05-12T21:44:41.249Z,100487.00
2019-05-12T21:47:17.520Z,100477.00
2019-05-12T21:53:50.556Z,100486.00
2019-05-12T22:05:51.042Z,100507.00
2019-05-12T22:11:00.792Z,100508.00
2019-05-12T22:13:46.896Z,100509.00
2019-05-12T22:16:15.856Z,100524.00
2019-05-12T22:19:00.197Z,100521.00
2019-05-12T22:21:35.764Z,100521.00
2019-05-12T22:24:38.677Z,100540.00
2019-05-12T22:27:30.514Z,100535.00
2019-05-12T22:33:20.027Z,100542.00
2019-05-12T22:36:14.040Z,100549.00
2019-05-12T22:39:02.249Z,100546.00
2019-05-12T22:41:41.681Z,100540.00
2019-05-12T22:44:20.913Z,100538.00
2019-05-12T22:47:12.736Z,100532.00
2019-05-12T22:50:33.238Z,100544.00
2019-05-12T22:53:13.357Z,100541.00
2019-05-12T22:55:53.457Z,100518.00
2019-05-12T22:58:59.095Z,100531.00
2019-05-12T23:01:49.710Z,100531.00
2019-05-12T23:04:44.744Z,100526.00
2019-05-12T23:07:28.409Z,100538.00
2019-05-12T23:10:41.568Z,100534.00
2019-05-12T23:13:16.719Z,100535.00
2019-05-12T23:16:06.770Z,100520.00
2019-05-12T23:18:44.279Z,100525.00
2019-05-12T23:21:19.186Z,100524.00
2019-05-12T23:24:00.102Z,100533.00
2019-05-12T23:26:35.503Z,100524.00
2019-05-12T23:29:31.036Z,100535.00
2019-05-12T23:32:12.050Z,100518.00
2019-05-12T23:34:52.578Z,100533.00
2019-05-12T23:40:16.615Z,100536.00
2019-05-12T23:42:58.764Z,100546.00
2019-05-12T23:45:34.030Z,100553.00
2019-05-12T23:48:07.179Z,100546.00
2019-05-12T23:50:43.848Z,100541.00
2019-05-12T23:53:16.347Z,100555.00
2019-05-12T23:55:50.115Z,100553.00
2019-05-12T23:58:30.315Z,100549.00
